Погода Фаломбена 2 недели

Южная Провинция, Малави

23 июля-05 августа
  • 23июля
    Сегодня
    +12°
    +27°
    Небольшая облачность
    ВремяПогодаТемператураВлажностьДавлениеВетер, м/сВероятность осадков
    02:00Ясно и безоблачно+15°C54 %702 мм0.7 м/с5 %
    05:00Ясно и безоблачно+14°C51 %702 мм0.8 м/с5 %
    08:00Ясно и безоблачно+18°C48 %704 мм0.0 м/с5 %
    11:00Практически безоблачно+22°C34 %704 мм0.8 м/с5 %
    14:00Небольшая облачность+26°C24 %703 мм1.0 м/с5 %
    17:00Ясно и безоблачно+21°C42 %702 мм1.5 м/с5 %
    20:00Ясно и безоблачно+15°C53 %702 мм2.3 м/с5 %
    23:00Ясно и безоблачно+13°C68 %702 мм1.3 м/с5 %
  • 24июля
    Среда
    +13°
    +26°
    Ясно и безоблачно
    ВремяПогодаТемператураВлажностьДавлениеВетер, м/сВероятность осадков
    02:00Ясно и безоблачно+14°C58 %701 мм0.9 м/с5 %
    05:00Ясно и безоблачно+12°C49 %701 мм1.1 м/с5 %
    08:00Ясно и безоблачно+18°C45 %703 мм0.2 м/с5 %
    11:00Ясно и безоблачно+21°C37 %703 мм0.8 м/с5 %
    14:00Ясно и безоблачно+26°C29 %701 мм0.7 м/с5 %
    17:00Ясно и безоблачно+21°C45 %700 мм0.3 м/с5 %
    20:00Ясно и безоблачно+16°C52 %700 мм1.2 м/с5 %
    23:00Ясно и безоблачно+14°C57 %699 мм0.8 м/с5 %
  • 25июля
    Четверг
    +14°
    +28°
    Ясно и безоблачно
    ВремяПогодаТемператураВлажностьДавлениеВетер, м/сВероятность осадков
    02:00Ясно и безоблачно+16°C47 %699 мм0.6 м/с5 %
    05:00Ясно и безоблачно+14°C45 %698 мм1.0 м/с5 %
    08:00Ясно и безоблачно+19°C36 %701 мм0.3 м/с5 %
    11:00Ясно и безоблачно+23°C28 %701 мм1.0 м/с5 %
    14:00Ясно и безоблачно+27°C21 %699 мм1.3 м/с5 %
    17:00Ясно и безоблачно+23°C32 %699 мм0.4 м/с5 %
    20:00Ясно и безоблачно+16°C42 %698 мм1.0 м/с5 %
    23:00Ясно и безоблачно+15°C40 %698 мм1.2 м/с5 %
  • 26июля
    Пятница
    +12°
    +27°
    Ясно и безоблачно
    ВремяПогодаТемператураВлажностьДавлениеВетер, м/сВероятность осадков
    02:00Ясно и безоблачно+15°C36 %697 мм1.1 м/с5 %
    05:00Ясно и безоблачно+15°C29 %698 мм1.0 м/с5 %
    08:00Ясно и безоблачно+20°C29 %700 мм0.1 м/с5 %
    11:00Ясно и безоблачно+23°C27 %701 мм0.7 м/с5 %
    14:00Ясно и безоблачно+27°C26 %699 мм0.5 м/с5 %
    17:00Ясно и безоблачно+22°C39 %699 мм1.2 м/с5 %
    20:00Ясно и безоблачно+16°C46 %699 мм1.6 м/с5 %
    23:00Ясно и безоблачно+14°C49 %699 мм1.0 м/с5 %
  • 27июля
    Суббота
    +13°
    +27°
    Ясно и безоблачно
    ВремяПогодаТемператураВлажностьДавлениеВетер, м/сВероятность осадков
    02:00Ясно и безоблачно+15°C46 %698 мм0.9 м/с5 %
    05:00Ясно и безоблачно+14°C43 %699 мм0.6 м/с5 %
    08:00Ясно и безоблачно+19°C46 %701 мм0.8 м/с5 %
    11:00Ясно и безоблачно+22°C38 %701 мм2.0 м/с5 %
    14:00Ясно и безоблачно+27°C32 %700 мм1.1 м/с5 %
    17:00Ясно и безоблачно+22°C49 %699 мм0.5 м/с5 %
    20:00Ясно и безоблачно+17°C53 %699 мм1.1 м/с5 %
    23:00Ясно и безоблачно+15°C55 %699 мм1.2 м/с5 %
Мы используем cookies
Соглашаюсь